Arlington, New York
Current Conditions -  °F | °C
As of 5:53 PM on Saturday 22 Nov 2014 (Local Time) from KPOU Reporting Station
Overcast Overcast  
Wind Chill: 37°   Ceiling: 3800
Heat Index: 42°   Visibility: 10mi
Dew Point: 12°   Wind: 9mph
Humidity: 29%   Direction: 210°SSW
Pressure: 30.2"   Gusts: NA
Location:  41.69°N, 73.89°W
Report Text: KPOU 222253Z 21008KT 10SM OVC038 06/M11 A3020 RMK AO2 SLP225 T00561111
Loading
Personal Weather Stations






























Interactive Weather Map New forecast layout! Learn more

10-Day Weather Forecast

Advertisements
Track Severe Weather on mobile